Time;durP1;ratioP1;P1;durP2;ratioP2;P2;SDS_P1;SDS_P2;PMS_P1;PMS_P2;Temp;Humidity;BMP_temperature;BMP_pressure;BME280_temperature;BME280_humidity;BME280_pressure;Samples;Min_cycle;Max_cycle;Signal;HPM_P1;HPM_P2
2022/09/30 00:02:20;;;;;;;;;;;6.80;99.90;;;;;;5050356;28;19921;-71
2022/09/30 00:04:45;;;;;;;;;;;6.70;99.90;;;;;;5035177;28;19933;-71
2022/09/30 00:07:11;;;;;;;;;;;6.70;99.90;;;;;;5047386;28;19943;-71
2022/09/30 00:09:36;;;;;;;;;;;6.60;99.90;;;;;;5051733;28;19921;-71
2022/09/30 00:12:02;;;;;;;;;;;6.60;99.90;;;;;;5052218;28;20671;-71
2022/09/30 00:14:27;;;;;;;;;;;6.60;99.90;;;;;;5050413;28;19924;-71
2022/09/30 00:16:53;;;;;;;;;;;6.60;99.90;;;;;;5034849;28;19978;-71
2022/09/30 00:19:19;;;;;;;;;;;6.60;99.90;;;;;;5051910;28;19983;-71
2022/09/30 00:21:44;;;;;;;;;;;6.50;99.90;;;;;;5051686;28;19920;-71
2022/09/30 00:24:10;;;;;;;;;;;6.50;99.90;;;;;;5052263;28;20448;-71
2022/09/30 00:26:35;;;;;;;;;;;6.50;99.90;;;;;;5051819;28;20055;-71
2022/09/30 00:29:02;;;;;;;;;;;6.50;99.90;;;;;;5050684;28;19921;-71
2022/09/30 00:31:29;;;;;;;;;;;6.50;99.90;;;;;;5051362;28;20020;-71
2022/09/30 00:34:06;;;;;;;;;;;6.40;99.90;;;;;;5051704;28;19920;-71
2022/09/30 00:36:32;;;;;;;;;;;6.40;99.90;;;;;;5052110;28;19932;-71
2022/09/30 00:38:58;;;;;;;;;;;6.40;99.90;;;;;;5050175;28;20290;-71
2022/09/30 00:41:23;;;;;;;;;;;6.30;99.90;;;;;;5062192;28;20274;-71
2022/09/30 00:43:52;;;;;;;;;;;6.20;99.90;;;;;;5052107;28;19966;-71
2022/09/30 00:46:20;;;;;;;;;;;6.20;99.90;;;;;;5033175;28;19971;-71
2022/09/30 00:48:49;;;;;;;;;;;6.20;99.90;;;;;;5051144;28;19927;-71
2022/09/30 00:51:15;;;;;;;;;;;6.10;99.90;;;;;;5051957;28;19928;-71
2022/09/30 00:53:50;;;;;;;;;;;6.10;99.90;;;;;;5050181;28;19925;-71
2022/09/30 00:56:17;;;;;;;;;;;6.10;99.90;;;;;;5034614;28;19933;-71
2022/09/30 00:58:48;;;;;;;;;;;6.10;99.90;;;;;;5050405;28;19924;-71
2022/09/30 01:01:14;;;;;;;;;;;6.10;99.90;;;;;;5050772;28;20638;-71
2022/09/30 01:03:41;;;;;;;;;;;6.10;99.90;;;;;;5048295;28;19924;-71
2022/09/30 01:06:07;;;;;;;;;;;6.10;99.90;;;;;;5051348;28;19927;-71
2022/09/30 01:08:35;;;;;;;;;;;6.10;99.90;;;;;;5049925;28;19924;-71
2022/09/30 01:11:00;;;;;;;;;;;6.10;99.90;;;;;;5049585;28;20329;-71
2022/09/30 01:13:27;;;;;;;;;;;6.10;99.90;;;;;;5034320;28;19928;-71
2022/09/30 01:15:56;;;;;;;;;;;6.10;99.90;;;;;;5051499;28;19925;-71
2022/09/30 01:18:21;;;;;;;;;;;6.10;99.90;;;;;;5041603;28;20381;-71
2022/09/30 01:20:53;;;;;;;;;;;6.00;99.90;;;;;;5050034;28;19954;-71
2022/09/30 01:23:44;;;;;;;;;;;6.00;99.90;;;;;;5050303;28;20363;-71
2022/09/30 01:26:19;;;;;;;;;;;6.10;99.90;;;;;;5043480;28;19920;-71
2022/09/30 01:28:53;;;;;;;;;;;6.10;99.90;;;;;;5049633;28;19928;-71
2022/09/30 01:31:25;;;;;;;;;;;6.10;99.90;;;;;;5033326;28;20322;-71
2022/09/30 01:34:05;;;;;;;;;;;6.10;99.90;;;;;;5040988;28;19921;-71
2022/09/30 01:36:49;;;;;;;;;;;6.10;99.90;;;;;;5050051;28;20007;-71
2022/09/30 01:39:18;;;;;;;;;;;6.00;99.90;;;;;;5046986;28;19929;-71
2022/09/30 01:41:51;;;;;;;;;;;6.00;99.90;;;;;;5047112;28;19932;-71
2022/09/30 01:44:36;;;;;;;;;;;6.00;99.90;;;;;;5047811;28;19928;-71
2022/09/30 01:47:16;;;;;;;;;;;6.10;99.90;;;;;;5049229;28;19927;-71
2022/09/30 01:49:45;;;;;;;;;;;6.10;99.90;;;;;;5049130;28;19921;-71
2022/09/30 01:52:10;;;;;;;;;;;6.10;99.90;;;;;;5039719;28;19921;-71
2022/09/30 01:54:47;;;;;;;;;;;6.00;99.90;;;;;;5047562;28;19920;-71
2022/09/30 01:57:18;;;;;;;;;;;6.10;99.90;;;;;;5054731;28;19931;-71
2022/09/30 01:59:45;;;;;;;;;;;6.10;99.90;;;;;;5050107;28;19921;-71
2022/09/30 02:02:24;;;;;;;;;;;6.10;99.90;;;;;;5042732;28;19925;-71
2022/09/30 02:04:52;;;;;;;;;;;6.10;99.90;;;;;;5032867;28;19921;-71
2022/09/30 02:07:23;;;;;;;;;;;6.00;99.90;;;;;;5044487;28;19921;-71
2022/09/30 02:09:55;;;;;;;;;;;6.00;99.90;;;;;;5047291;28;20011;-71
2022/09/30 02:12:22;;;;;;;;;;;6.00;99.90;;;;;;5034196;28;19925;-71
2022/09/30 02:15:08;;;;;;;;;;;5.90;99.90;;;;;;5048989;28;19921;-71
2022/09/30 02:17:54;;;;;;;;;;;5.90;99.90;;;;;;5049508;28;19951;-71
2022/09/30 02:20:35;;;;;;;;;;;5.90;99.90;;;;;;5047537;28;19929;-71
2022/09/30 02:23:05;;;;;;;;;;;5.90;99.90;;;;;;5048193;28;19921;-71
2022/09/30 02:25:34;;;;;;;;;;;5.80;99.90;;;;;;5049832;28;19925;-71
2022/09/30 02:28:04;;;;;;;;;;;5.80;99.90;;;;;;5046485;28;19960;-71
2022/09/30 02:30:31;;;;;;;;;;;5.80;99.90;;;;;;5049558;28;19921;-71
2022/09/30 02:33:01;;;;;;;;;;;5.80;99.90;;;;;;5049021;28;19927;-71
2022/09/30 02:35:39;;;;;;;;;;;5.80;99.90;;;;;;5049469;28;19929;-71
2022/09/30 02:38:08;;;;;;;;;;;5.70;99.90;;;;;;5049471;28;20290;-71
2022/09/30 02:41:01;;;;;;;;;;;5.70;99.90;;;;;;5029482;28;19988;-71
2022/09/30 02:43:27;;;;;;;;;;;5.70;99.90;;;;;;5042708;28;19924;-71
2022/09/30 02:46:04;;;;;;;;;;;5.70;99.90;;;;;;5046147;28;19925;-71
2022/09/30 02:48:31;;;;;;;;;;;5.70;99.90;;;;;;5048783;28;19924;-71
2022/09/30 02:51:03;;;;;;;;;;;5.70;99.90;;;;;;5047898;28;19921;-71
2022/09/30 02:53:28;;;;;;;;;;;5.60;99.90;;;;;;5045105;28;20024;-71
2022/09/30 02:56:09;;;;;;;;;;;5.70;99.90;;;;;;5049052;28;20019;-71
2022/09/30 02:58:38;;;;;;;;;;;5.70;99.90;;;;;;5043715;28;19929;-71
2022/09/30 03:01:06;;;;;;;;;;;5.60;99.90;;;;;;5047783;28;20311;-71
2022/09/30 03:03:34;;;;;;;;;;;5.60;99.90;;;;;;5046597;28;19924;-71
2022/09/30 03:05:59;;;;;;;;;;;5.60;99.90;;;;;;5046372;28;19967;-71
2022/09/30 03:08:25;;;;;;;;;;;5.60;99.90;;;;;;5043146;28;20009;-71
2022/09/30 03:10:50;;;;;;;;;;;5.60;99.90;;;;;;5050273;28;19921;-71
2022/09/30 03:13:22;;;;;;;;;;;5.60;99.90;;;;;;5037133;28;20256;-71
2022/09/30 03:15:58;;;;;;;;;;;5.50;99.90;;;;;;5049856;28;19929;-71
2022/09/30 03:18:46;;;;;;;;;;;5.50;99.90;;;;;;5053906;28;20251;-71
2022/09/30 03:21:31;;;;;;;;;;;5.50;99.90;;;;;;5050518;28;19931;-71
2022/09/30 03:24:05;;;;;;;;;;;5.50;99.90;;;;;;5034064;28;19974;-71
2022/09/30 03:26:53;;;;;;;;;;;5.40;99.90;;;;;;5061607;28;20388;-71
2022/09/30 03:29:19;;;;;;;;;;;5.40;99.90;;;;;;5049247;28;19925;-71
2022/09/30 03:31:52;;;;;;;;;;;5.40;99.90;;;;;;5036940;28;20358;-71
2022/09/30 03:34:20;;;;;;;;;;;5.40;99.90;;;;;;5052740;28;19928;-71
2022/09/30 03:37:01;;;;;;;;;;;5.40;99.90;;;;;;5052855;28;20270;-71
2022/09/30 03:39:36;;;;;;;;;;;5.30;99.90;;;;;;5044113;28;19925;-71
2022/09/30 03:42:06;;;;;;;;;;;5.30;99.90;;;;;;5052405;28;19935;-71
2022/09/30 03:44:36;;;;;;;;;;;5.30;99.90;;;;;;5053122;28;20000;-71
2022/09/30 03:47:05;;;;;;;;;;;5.30;99.90;;;;;;5052290;28;20469;-71
2022/09/30 03:49:33;;;;;;;;;;;5.20;99.90;;;;;;5052419;28;19920;-71
2022/09/30 03:51:59;;;;;;;;;;;5.20;99.90;;;;;;5053140;28;19921;-71
2022/09/30 03:54:24;;;;;;;;;;;5.20;99.90;;;;;;5052237;28;19932;-71
2022/09/30 03:56:50;;;;;;;;;;;5.20;99.90;;;;;;5034081;28;19928;-71
2022/09/30 03:59:21;;;;;;;;;;;5.10;99.90;;;;;;5051373;28;20271;-71
2022/09/30 04:01:47;;;;;;;;;;;5.20;99.90;;;;;;5046774;28;20646;-71
2022/09/30 04:04:12;;;;;;;;;;;5.10;99.90;;;;;;5049204;28;20008;-71
2022/09/30 04:06:38;;;;;;;;;;;5.10;99.90;;;;;;5048872;28;19947;-71
2022/09/30 04:09:03;;;;;;;;;;;5.10;99.90;;;;;;5050449;28;19982;-71
2022/09/30 04:11:29;;;;;;;;;;;5.10;99.90;;;;;;5050283;28;19932;-71
2022/09/30 04:13:54;;;;;;;;;;;5.20;99.90;;;;;;5051535;28;19920;-71
2022/09/30 04:16:20;;;;;;;;;;;5.20;99.90;;;;;;5048229;28;19936;-71
2022/09/30 04:18:45;;;;;;;;;;;5.20;99.90;;;;;;5048405;28;19932;-71
2022/09/30 04:21:12;;;;;;;;;;;5.20;99.90;;;;;;5050817;28;20014;-71
2022/09/30 04:23:38;;;;;;;;;;;5.20;99.90;;;;;;5049508;28;19996;-71
2022/09/30 04:26:05;;;;;;;;;;;5.20;99.90;;;;;;5048772;28;19937;-71
2022/09/30 04:28:30;;;;;;;;;;;5.20;99.90;;;;;;5051081;28;19921;-71
2022/09/30 04:30:59;;;;;;;;;;;5.20;99.90;;;;;;5049115;28;19935;-71
2022/09/30 04:33:25;;;;;;;;;;;5.10;99.90;;;;;;5050452;28;20019;-72
2022/09/30 04:35:54;;;;;;;;;;;5.20;99.90;;;;;;5046244;28;20014;-71
2022/09/30 04:38:21;;;;;;;;;;;5.20;99.90;;;;;;5049945;28;19978;-71
2022/09/30 04:40:48;;;;;;;;;;;5.20;99.90;;;;;;5050559;28;19924;-71
2022/09/30 04:43:15;;;;;;;;;;;5.20;99.90;;;;;;5053165;28;20069;-71
2022/09/30 04:45:44;;;;;;;;;;;5.20;99.90;;;;;;5053171;28;20346;-71
2022/09/30 04:48:10;;;;;;;;;;;5.10;99.90;;;;;;5030636;28;20003;-71
2022/09/30 04:50:35;;;;;;;;;;;5.10;99.90;;;;;;5048267;28;19944;-70
2022/09/30 04:53:02;;;;;;;;;;;5.10;99.90;;;;;;5052164;28;20244;-71
2022/09/30 04:55:28;;;;;;;;;;;5.10;99.90;;;;;;5032476;28;19921;-71
2022/09/30 04:57:54;;;;;;;;;;;5.20;99.90;;;;;;5051532;28;19928;-71
2022/09/30 05:00:20;;;;;;;;;;;5.10;99.90;;;;;;5050832;28;19921;-71
2022/09/30 05:02:45;;;;;;;;;;;5.10;99.90;;;;;;5050796;28;19925;-71
2022/09/30 05:05:11;;;;;;;;;;;5.10;99.90;;;;;;5042186;28;19925;-71
2022/09/30 05:07:36;;;;;;;;;;;5.10;99.90;;;;;;5051382;28;20456;-71
2022/09/30 05:10:02;;;;;;;;;;;5.10;99.90;;;;;;5051137;28;19921;-71
2022/09/30 05:12:27;;;;;;;;;;;5.10;99.90;;;;;;5050869;28;19927;-71
2022/09/30 05:14:53;;;;;;;;;;;5.10;99.90;;;;;;5049622;28;19925;-71
2022/09/30 05:17:18;;;;;;;;;;;5.00;99.90;;;;;;5050300;28;19933;-71
2022/09/30 05:19:44;;;;;;;;;;;5.00;99.90;;;;;;5049957;28;19924;-71
2022/09/30 05:22:09;;;;;;;;;;;5.00;99.90;;;;;;5051559;28;19960;-71
2022/09/30 05:24:35;;;;;;;;;;;5.00;99.90;;;;;;5051487;28;19932;-71
2022/09/30 05:27:00;;;;;;;;;;;5.00;99.90;;;;;;5051127;28;19921;-71
2022/09/30 05:29:26;;;;;;;;;;;5.00;99.90;;;;;;5051019;28;19973;-71
2022/09/30 05:31:51;;;;;;;;;;;5.00;99.90;;;;;;5030925;28;20366;-71
2022/09/30 05:34:17;;;;;;;;;;;5.00;99.90;;;;;;5032931;28;19968;-71
2022/09/30 05:36:43;;;;;;;;;;;5.00;99.90;;;;;;5048837;28;20382;-71
2022/09/30 05:39:09;;;;;;;;;;;5.00;99.90;;;;;;5050036;28;19921;-71
2022/09/30 05:41:35;;;;;;;;;;;5.00;99.90;;;;;;5049697;28;19935;-71
2022/09/30 05:44:01;;;;;;;;;;;5.10;99.90;;;;;;5051573;28;20015;-71
2022/09/30 05:46:27;;;;;;;;;;;5.10;99.90;;;;;;5051956;28;20316;-71
2022/09/30 05:48:53;;;;;;;;;;;5.10;99.90;;;;;;5045022;28;19929;-71
2022/09/30 05:51:19;;;;;;;;;;;5.10;99.90;;;;;;5038311;28;19921;-68
2022/09/30 05:53:44;;;;;;;;;;;5.10;99.90;;;;;;5033585;28;20251;-68
2022/09/30 05:56:10;;;;;;;;;;;5.10;99.90;;;;;;5050890;28;20301;-67
2022/09/30 05:58:36;;;;;;;;;;;5.10;99.90;;;;;;5051273;28;20543;-67
2022/09/30 06:01:05;;;;;;;;;;;5.20;99.90;;;;;;5045593;28;20590;-67
2022/09/30 06:03:31;;;;;;;;;;;5.20;99.90;;;;;;5050387;28;19928;-68
2022/09/30 06:05:56;;;;;;;;;;;5.20;99.90;;;;;;5048889;28;19921;-68
2022/09/30 06:08:22;;;;;;;;;;;5.30;99.90;;;;;;5049908;28;19921;-68
2022/09/30 06:10:48;;;;;;;;;;;5.30;99.90;;;;;;5049973;28;19957;-67
2022/09/30 06:13:15;;;;;;;;;;;5.40;99.90;;;;;;5033605;28;19929;-68
2022/09/30 06:15:40;;;;;;;;;;;5.40;99.90;;;;;;5033998;28;19931;-67
2022/09/30 06:18:06;;;;;;;;;;;5.50;99.90;;;;;;5049856;28;20382;-67
2022/09/30 06:20:32;;;;;;;;;;;5.50;99.90;;;;;;5067135;28;20295;-67
2022/09/30 06:22:59;;;;;;;;;;;5.60;99.90;;;;;;5050267;28;19928;-68
2022/09/30 06:25:24;;;;;;;;;;;5.70;99.90;;;;;;5050543;28;19959;-67
2022/09/30 06:27:50;;;;;;;;;;;5.80;99.90;;;;;;5040610;28;20013;-68
2022/09/30 06:30:15;;;;;;;;;;;5.80;99.90;;;;;;5048628;28;19932;-68
2022/09/30 06:32:41;;;;;;;;;;;5.90;99.90;;;;;;5050065;28;19966;-68
2022/09/30 06:35:07;;;;;;;;;;;6.00;99.90;;;;;;5049050;28;19932;-67
2022/09/30 06:37:35;;;;;;;;;;;6.10;99.90;;;;;;5048977;28;19931;-67
2022/09/30 06:40:01;;;;;;;;;;;6.20;99.90;;;;;;5050231;28;19921;-67
2022/09/30 06:42:26;;;;;;;;;;;6.30;99.90;;;;;;5051382;28;19931;-67
2022/09/30 06:44:52;;;;;;;;;;;6.40;99.90;;;;;;5049044;28;20607;-68
2022/09/30 06:47:17;;;;;;;;;;;6.50;99.90;;;;;;5052511;28;19931;-67
2022/09/30 06:49:43;;;;;;;;;;;6.70;99.90;;;;;;5049084;28;19929;-67
2022/09/30 06:52:11;;;;;;;;;;;6.80;99.90;;;;;;5048503;28;19921;-67
2022/09/30 06:54:38;;;;;;;;;;;6.90;99.90;;;;;;5049991;28;20007;-67
2022/09/30 06:57:03;;;;;;;;;;;7.10;99.90;;;;;;5046984;28;19974;-71
2022/09/30 06:59:29;;;;;;;;;;;7.40;99.90;;;;;;5046935;28;19928;-70
2022/09/30 07:01:54;;;;;;;;;;;7.90;99.90;;;;;;5044473;28;19924;-69
2022/09/30 07:04:20;;;;;;;;;;;8.20;99.90;;;;;;5045062;28;19925;-68
2022/09/30 07:06:45;;;;;;;;;;;8.60;99.90;;;;;;5043675;28;19929;-68
2022/09/30 07:09:11;;;;;;;;;;;8.90;99.90;;;;;;5037305;28;19974;-68
2022/09/30 07:11:37;;;;;;;;;;;9.10;99.90;;;;;;5040648;28;19921;-69
2022/09/30 07:14:05;;;;;;;;;;;9.20;99.90;;;;;;5049221;28;19921;-68
2022/09/30 07:16:32;;;;;;;;;;;9.40;99.90;;;;;;5039846;28;19925;-68
2022/09/30 07:18:59;;;;;;;;;;;9.40;99.90;;;;;;5040291;28;19925;-69
2022/09/30 07:21:24;;;;;;;;;;;9.50;99.90;;;;;;5044054;28;19931;-69
2022/09/30 07:23:51;;;;;;;;;;;9.50;99.90;;;;;;5044910;28;20269;-69
2022/09/30 07:26:18;;;;;;;;;;;9.60;99.90;;;;;;5047517;28;20310;-68
2022/09/30 07:28:43;;;;;;;;;;;9.50;99.90;;;;;;5046478;28;19929;-68
2022/09/30 07:31:15;;;;;;;;;;;9.50;99.90;;;;;;5044790;28;20258;-69
2022/09/30 07:33:41;;;;;;;;;;;9.50;99.90;;;;;;5048147;28;19928;-68
2022/09/30 07:36:07;;;;;;;;;;;9.50;99.90;;;;;;5047652;28;19921;-68
2022/09/30 07:38:35;;;;;;;;;;;9.40;99.90;;;;;;5045814;28;19964;-69
2022/09/30 07:41:06;;;;;;;;;;;9.40;99.90;;;;;;5044585;28;19929;-68
2022/09/30 07:43:38;;;;;;;;;;;9.50;99.90;;;;;;5048673;28;20334;-68
2022/09/30 07:46:06;;;;;;;;;;;9.50;99.90;;;;;;5065800;28;19927;-68
2022/09/30 07:48:46;;;;;;;;;;;9.60;99.90;;;;;;5049831;28;19971;-69
2022/09/30 07:51:12;;;;;;;;;;;;;;;;;;5049984;28;20396;-68
2022/09/30 07:53:38;;;;;;;;;;;9.70;99.90;;;;;;5048483;28;19978;-70
2022/09/30 07:56:05;;;;;;;;;;;9.90;99.90;;;;;;5049949;28;19976;-69
2022/09/30 07:58:31;;;;;;;;;;;10.00;99.90;;;;;;5048588;28;19944;-69
2022/09/30 08:00:56;;;;;;;;;;;10.10;99.90;;;;;;5053332;28;20246;-69
2022/09/30 08:03:21;;;;;;;;;;;10.20;99.90;;;;;;5053572;28;20409;-69
2022/09/30 08:05:47;;;;;;;;;;;10.30;99.90;;;;;;5053277;28;19924;-68
2022/09/30 08:08:13;;;;;;;;;;;10.50;99.90;;;;;;5052141;28;19971;-69
2022/09/30 08:10:39;;;;;;;;;;;10.60;99.90;;;;;;5052615;28;19931;-69
2022/09/30 08:13:04;;;;;;;;;;;10.70;99.90;;;;;;5046477;28;21619;-68
2022/09/30 08:15:30;;;;;;;;;;;10.80;99.90;;;;;;5053104;28;19925;-69
2022/09/30 08:17:55;;;;;;;;;;;11.00;99.90;;;;;;5051332;28;20349;-68
2022/09/30 08:20:21;;;;;;;;;;;11.00;99.90;;;;;;5055051;28;19975;-69
2022/09/30 08:22:46;;;;;;;;;;;11.10;99.90;;;;;;5054464;28;20220;-69
2022/09/30 08:25:12;;;;;;;;;;;11.10;99.90;;;;;;5034431;28;19921;-69
2022/09/30 08:27:37;;;;;;;;;;;11.10;99.90;;;;;;5047910;28;20307;-69
2022/09/30 08:30:04;;;;;;;;;;;11.20;99.90;;;;;;5042446;28;19975;-69
2022/09/30 08:32:30;;;;;;;;;;;11.30;99.90;;;;;;5051962;28;19927;-69
2022/09/30 08:34:55;;;;;;;;;;;11.30;99.90;;;;;;5036036;28;19921;-69
2022/09/30 08:37:21;;;;;;;;;;;11.30;99.90;;;;;;5035510;28;19932;-69
2022/09/30 08:39:47;;;;;;;;;;;11.40;99.90;;;;;;5032385;28;19921;-69
2022/09/30 08:42:12;;;;;;;;;;;11.40;99.90;;;;;;5032974;28;20382;-69
2022/09/30 08:44:41;;;;;;;;;;;11.50;99.90;;;;;;5027567;28;19939;-69
2022/09/30 08:47:28;;;;;;;;;;;11.70;99.90;;;;;;5052788;28;19921;-69
2022/09/30 08:50:29;;;;;;;;;;;11.80;99.90;;;;;;5052316;28;20346;-69
2022/09/30 08:53:04;;;;;;;;;;;12.00;99.90;;;;;;5007943;28;19925;-70
2022/09/30 08:55:56;;;;;;;;;;;12.20;99.90;;;;;;5038951;28;20011;-69
2022/09/30 08:58:30;;;;;;;;;;;12.30;99.90;;;;;;5047546;28;19970;-69
2022/09/30 09:00:58;;;;;;;;;;;12.40;99.90;;;;;;5049875;28;19928;-69
2022/09/30 09:03:28;;;;;;;;;;;12.40;99.90;;;;;;5052237;28;19931;-69
2022/09/30 09:06:09;;;;;;;;;;;12.40;99.90;;;;;;5050527;28;20015;-69
2022/09/30 09:08:50;;;;;;;;;;;12.40;99.90;;;;;;5051661;28;19951;-69
2022/09/30 09:11:16;;;;;;;;;;;12.50;99.90;;;;;;5051897;28;20236;-70
2022/09/30 09:13:49;;;;;;;;;;;12.40;99.90;;;;;;5035038;28;19925;-70
2022/09/30 09:16:20;;;;;;;;;;;12.50;99.90;;;;;;5051512;28;20243;-70
2022/09/30 09:18:57;;;;;;;;;;;12.50;99.90;;;;;;5047177;28;19948;-69
2022/09/30 09:21:26;;;;;;;;;;;12.60;99.90;;;;;;5051726;28;20604;-70
2022/09/30 09:23:53;;;;;;;;;;;12.70;99.90;;;;;;5035234;28;20011;-70
2022/09/30 09:26:18;;;;;;;;;;;12.90;99.90;;;;;;5051615;28;19925;-70
2022/09/30 09:28:50;;;;;;;;;;;12.90;99.90;;;;;;5050425;28;20046;-70
2022/09/30 09:31:16;;;;;;;;;;;13.10;99.90;;;;;;5050881;28;19921;-70
2022/09/30 09:33:42;;;;;;;;;;;13.10;99.90;;;;;;5051986;28;20348;-70
2022/09/30 09:36:27;;;;;;;;;;;13.20;99.90;;;;;;5046154;28;19964;-70
2022/09/30 09:38:58;;;;;;;;;;;13.10;99.90;;;;;;5037578;28;19925;-69
2022/09/30 09:41:24;;;;;;;;;;;13.30;99.90;;;;;;5051290;28;20454;-70
2022/09/30 09:44:01;;;;;;;;;;;13.30;99.90;;;;;;5049673;28;19928;-70
2022/09/30 09:46:29;;;;;;;;;;;13.40;99.90;;;;;;5049765;28;19924;-70
2022/09/30 09:49:25;;;;;;;;;;;13.30;99.90;;;;;;5051213;28;19975;-70
2022/09/30 09:51:57;;;;;;;;;;;13.30;99.90;;;;;;5050335;28;19927;-68
2022/09/30 09:54:24;;;;;;;;;;;13.20;99.90;;;;;;5033597;28;20306;-68
2022/09/30 09:56:51;;;;;;;;;;;13.20;99.90;;;;;;5035023;28;20367;-68
2022/09/30 09:59:17;;;;;;;;;;;13.20;99.90;;;;;;5051542;28;20407;-68
2022/09/30 10:01:48;;;;;;;;;;;13.30;99.90;;;;;;5050631;28;20458;-68
2022/09/30 10:04:20;;;;;;;;;;;13.40;99.90;;;;;;5050382;28;19932;-68
2022/09/30 10:06:51;;;;;;;;;;;13.40;99.90;;;;;;5051104;28;19927;-68
2022/09/30 10:09:22;;;;;;;;;;;13.50;99.90;;;;;;5045841;28;19921;-68
2022/09/30 10:11:48;;;;;;;;;;;13.50;99.90;;;;;;5051205;28;19924;-67
2022/09/30 10:14:18;;;;;;;;;;;13.60;99.90;;;;;;5051126;28;19982;-68
2022/09/30 10:16:44;;;;;;;;;;;13.70;99.90;;;;;;5042756;28;19925;-68
2022/09/30 10:19:18;;;;;;;;;;;13.70;99.90;;;;;;5051519;28;19927;-68
2022/09/30 10:21:44;;;;;;;;;;;13.80;99.90;;;;;;5031676;28;20012;-68
2022/09/30 10:24:27;;;;;;;;;;;13.90;99.90;;;;;;5038412;28;20339;-68
2022/09/30 10:26:53;;;;;;;;;;;14.00;99.90;;;;;;5057536;28;19920;-68
2022/09/30 10:29:41;;;;;;;;;;;14.20;99.90;;;;;;5048555;28;19932;-68
2022/09/30 10:32:07;;;;;;;;;;;14.10;99.90;;;;;;5047796;28;19960;-68
2022/09/30 10:34:35;;;;;;;;;;;14.20;99.90;;;;;;5048498;28;19928;-68
2022/09/30 10:37:01;;;;;;;;;;;14.20;99.90;;;;;;5034062;28;19952;-68
2022/09/30 10:39:28;;;;;;;;;;;14.30;99.90;;;;;;5044182;28;19967;-68
2022/09/30 10:42:06;;;;;;;;;;;14.30;99.90;;;;;;5044980;28;20289;-68
2022/09/30 10:44:35;;;;;;;;;;;14.50;99.90;;;;;;5046040;28;19929;-68
2022/09/30 10:47:02;;;;;;;;;;;14.50;99.90;;;;;;5042072;28;19929;-68
2022/09/30 10:49:48;;;;;;;;;;;14.60;99.90;;;;;;5049725;28;19960;-68
2022/09/30 10:52:18;;;;;;;;;;;14.70;99.90;;;;;;5048107;28;19929;-68
2022/09/30 10:54:52;;;;;;;;;;;14.70;99.90;;;;;;5048379;28;20066;-68
2022/09/30 10:57:31;;;;;;;;;;;14.80;99.90;;;;;;5048861;28;19924;-68
2022/09/30 11:00:00;;;;;;;;;;;14.90;99.90;;;;;;5048722;28;19928;-68
2022/09/30 11:02:33;;;;;;;;;;;14.90;99.90;;;;;;5064399;28;19925;-68
2022/09/30 11:05:06;;;;;;;;;;;15.00;99.90;;;;;;5047311;28;19967;-69
2022/09/30 11:07:31;;;;;;;;;;;15.00;99.90;;;;;;5046797;28;20003;-68
2022/09/30 11:10:01;;;;;;;;;;;15.10;99.90;;;;;;5031085;28;20008;-68
2022/09/30 11:12:26;;;;;;;;;;;15.20;99.90;;;;;;5047981;28;19925;-69
2022/09/30 11:15:03;;;;;;;;;;;15.20;99.90;;;;;;5051174;28;19928;-69
2022/09/30 11:17:35;;;;;;;;;;;15.20;99.90;;;;;;5046132;28;20397;-69
2022/09/30 11:20:05;;;;;;;;;;;15.30;99.90;;;;;;5044766;28;19921;-68
2022/09/30 11:22:43;;;;;;;;;;;15.40;99.90;;;;;;5040834;28;20378;-69
2022/09/30 11:25:18;;;;;;;;;;;15.40;99.90;;;;;;5047094;28;19928;-69
2022/09/30 11:27:50;;;;;;;;;;;15.50;99.90;;;;;;5047953;28;19928;-68
2022/09/30 11:30:27;;;;;;;;;;;15.50;99.90;;;;;;5055021;28;19949;-69
2022/09/30 11:32:56;;;;;;;;;;;15.40;99.90;;;;;;5053449;28;19967;-69
2022/09/30 11:35:45;;;;;;;;;;;15.10;99.90;;;;;;5052312;28;20019;-69
2022/09/30 11:38:16;;;;;;;;;;;15.20;99.90;;;;;;5052305;28;19921;-69
2022/09/30 11:40:57;;;;;;;;;;;15.20;99.90;;;;;;5048404;28;21390;-69
2022/09/30 11:43:22;;;;;;;;;;;15.20;99.90;;;;;;5046714;28;19932;-68
2022/09/30 11:45:57;;;;;;;;;;;15.10;99.90;;;;;;5040252;28;19920;-68
2022/09/30 11:48:41;;;;;;;;;;;15.20;99.90;;;;;;5050135;28;20013;-68
2022/09/30 11:51:25;;;;;;;;;;;15.30;99.90;;;;;;5054042;28;19929;-69
2022/09/30 11:54:09;;;;;;;;;;;15.40;99.90;;;;;;5054824;23;19929;-67
2022/09/30 11:56:41;;;;;;;;;;;15.60;99.90;;;;;;5050516;28;19974;-67
2022/09/30 11:59:13;;;;;;;;;;;15.50;99.90;;;;;;5046833;28;19959;-67
2022/09/30 12:01:44;;;;;;;;;;;15.50;99.90;;;;;;5051283;28;19928;-67
2022/09/30 12:04:14;;;;;;;;;;;15.60;99.90;;;;;;5050580;28;19925;-67
2022/09/30 12:06:43;;;;;;;;;;;15.60;99.90;;;;;;5049652;28;19928;-67
2022/09/30 12:09:15;;;;;;;;;;;15.70;99.90;;;;;;5052669;28;19920;-65
2022/09/30 12:11:43;;;;;;;;;;;15.80;99.90;;;;;;5051900;28;19920;-65
2022/09/30 12:14:22;;;;;;;;;;;16.00;99.90;;;;;;5048020;28;20361;-65
2022/09/30 12:16:47;;;;;;;;;;;16.10;99.90;;;;;;5054548;28;19971;-65
2022/09/30 12:19:13;;;;;;;;;;;16.10;99.90;;;;;;5051665;28;19952;-65
2022/09/30 12:21:42;;;;;;;;;;;16.10;99.90;;;;;;5051113;28;19924;-65
2022/09/30 12:24:10;;;;;;;;;;;16.10;99.90;;;;;;5052034;28;20031;-65
2022/09/30 12:26:38;;;;;;;;;;;16.10;99.90;;;;;;5052240;28;19920;-65
2022/09/30 12:32:11;;;;;;;;;;;16.20;99.90;;;;;;5045656;28;19925;-65
2022/09/30 12:34:47;;;;;;;;;;;16.30;99.90;;;;;;5042016;28;20314;-65
2022/09/30 12:37:15;;;;;;;;;;;16.20;99.90;;;;;;5047118;28;19925;-65
2022/09/30 12:39:41;;;;;;;;;;;16.10;99.90;;;;;;5049796;28;19921;-65
2022/09/30 12:42:25;;;;;;;;;;;16.20;99.90;;;;;;5047961;28;21600;-64
2022/09/30 12:45:09;;;;;;;;;;;16.30;99.90;;;;;;5039304;28;20015;-64
2022/09/30 12:47:49;;;;;;;;;;;16.30;99.90;;;;;;5048618;28;20289;-65
2022/09/30 12:50:17;;;;;;;;;;;16.40;99.90;;;;;;5045397;28;19987;-65
2022/09/30 12:52:43;;;;;;;;;;;16.40;99.90;;;;;;5044017;28;19928;-65
2022/09/30 12:55:16;;;;;;;;;;;16.50;99.90;;;;;;5043763;28;19932;-65
2022/09/30 12:57:41;;;;;;;;;;;16.60;99.90;;;;;;5049427;28;19924;-65
2022/09/30 13:00:15;;;;;;;;;;;16.50;99.90;;;;;;5044009;28;19921;-65
2022/09/30 13:02:42;;;;;;;;;;;16.50;99.90;;;;;;5050602;28;19936;-65
2022/09/30 13:05:25;;;;;;;;;;;16.40;99.90;;;;;;5045548;28;19929;-65
2022/09/30 13:08:03;;;;;;;;;;;16.40;99.90;;;;;;5040380;28;20302;-65
2022/09/30 13:10:30;;;;;;;;;;;16.50;99.90;;;;;;5044526;28;20772;-65
2022/09/30 13:13:15;;;;;;;;;;;16.50;99.90;;;;;;5047787;28;19928;-65
2022/09/30 13:15:42;;;;;;;;;;;16.50;99.90;;;;;;5050177;28;19929;-65
2022/09/30 13:18:20;;;;;;;;;;;16.40;99.90;;;;;;5047022;28;19920;-65
2022/09/30 13:21:03;;;;;;;;;;;16.40;99.90;;;;;;5050319;28;20368;-65
2022/09/30 13:23:36;;;;;;;;;;;16.40;99.90;;;;;;5049770;28;20421;-65
2022/09/30 13:26:02;;;;;;;;;;;16.50;99.90;;;;;;5029735;28;19921;-65
2022/09/30 13:28:35;;;;;;;;;;;16.50;99.90;;;;;;5050761;28;19925;-65
2022/09/30 13:31:11;;;;;;;;;;;16.50;99.90;;;;;;5048655;28;20754;-65
2022/09/30 13:33:42;;;;;;;;;;;16.50;99.90;;;;;;5046305;28;19956;-65
2022/09/30 13:36:15;;;;;;;;;;;16.50;99.90;;;;;;5047979;28;19925;-65
2022/09/30 13:38:41;;;;;;;;;;;16.50;99.90;;;;;;5047303;28;19960;-65
2022/09/30 13:41:15;;;;;;;;;;;16.50;99.90;;;;;;5048391;28;19968;-65
2022/09/30 13:44:01;;;;;;;;;;;16.50;99.90;;;;;;5050313;28;19924;-65
2022/09/30 13:46:38;;;;;;;;;;;16.60;99.90;;;;;;5047983;28;19928;-65
2022/09/30 13:49:10;;;;;;;;;;;16.60;99.90;;;;;;5048145;28;20377;-65
2022/09/30 13:51:39;;;;;;;;;;;16.60;99.90;;;;;;5049350;28;19942;-65
2022/09/30 13:54:25;;;;;;;;;;;16.60;99.90;;;;;;5048283;28;19936;-65
2022/09/30 13:56:51;;;;;;;;;;;16.60;99.90;;;;;;5050150;28;19932;-65
2022/09/30 13:59:17;;;;;;;;;;;16.50;99.90;;;;;;5047940;28;20003;-65
2022/09/30 14:01:59;;;;;;;;;;;16.30;99.90;;;;;;5043224;28;20016;-65
2022/09/30 14:04:25;;;;;;;;;;;16.20;99.90;;;;;;5047869;28;20374;-65
2022/09/30 14:07:06;;;;;;;;;;;16.20;99.90;;;;;;5049658;28;19925;-65
2022/09/30 14:09:37;;;;;;;;;;;16.10;99.90;;;;;;5049907;28;19925;-65
2022/09/30 14:12:12;;;;;;;;;;;16.10;99.90;;;;;;5046496;28;20252;-65
2022/09/30 14:14:37;;;;;;;;;;;16.30;99.90;;;;;;5045987;28;19927;-65
2022/09/30 14:17:14;;;;;;;;;;;16.20;99.90;;;;;;5044191;28;19925;-65
2022/09/30 14:19:42;;;;;;;;;;;16.20;99.90;;;;;;5043955;28;20288;-66
2022/09/30 14:22:09;;;;;;;;;;;16.20;99.90;;;;;;5051344;28;20231;-65
2022/09/30 14:24:39;;;;;;;;;;;16.20;99.90;;;;;;5048009;28;19932;-65
2022/09/30 14:27:04;;;;;;;;;;;16.30;99.90;;;;;;5048379;28;19920;-65
2022/09/30 14:29:29;;;;;;;;;;;16.20;99.90;;;;;;5027323;28;19927;-65
2022/09/30 14:31:56;;;;;;;;;;;16.20;99.90;;;;;;5041876;28;20006;-65
2022/09/30 14:34:23;;;;;;;;;;;16.30;99.90;;;;;;5032288;28;19977;-65
2022/09/30 14:36:50;;;;;;;;;;;16.40;99.90;;;;;;5048205;28;19924;-65
2022/09/30 14:39:17;;;;;;;;;;;16.40;99.90;;;;;;5042178;28;20254;-65
2022/09/30 14:41:51;;;;;;;;;;;16.40;99.90;;;;;;5044374;28;19925;-65
2022/09/30 14:44:18;;;;;;;;;;;16.40;99.90;;;;;;5041719;28;19921;-65